Time,TemperatureF,DewpointF,PressureIn,WindDirection,WindDirectionDegrees,WindSpeedMPH,WindSpeedGustMPH,Humidity,HourlyPrecipIn,Conditions,Clouds,dailyrainin,SoftwareType,DateUTC
2013-05-28 00:00:00,48.2,41.7,30.00,NNE,22,0.0,-999.0,78,-99.99,,,0.00,Acu-Link.com,2013-05-28 04:00:00,
2013-05-28 00:15:00,48.4,41.5,30.00,NNE,22,0.0,-999.0,77,-99.99,,,0.00,Acu-Link.com,2013-05-28 04:15:00,
2013-05-28 00:31:00,48.2,41.0,29.99,NNE,22,0.0,-999.0,76,-99.99,,,0.00,Acu-Link.com,2013-05-28 04:31:00,
2013-05-28 00:46:00,48.2,41.0,29.99,NNE,22,0.0,-999.0,76,-99.99,,,0.00,Acu-Link.com,2013-05-28 04:46:00,
2013-05-28 01:01:00,48.0,40.8,29.99,NNE,22,0.0,-999.0,76,-99.99,,,0.00,Acu-Link.com,2013-05-28 05:01:00,
2013-05-28 01:16:00,48.0,40.8,29.98,NNE,22,0.0,-999.0,76,-99.99,,,0.00,Acu-Link.com,2013-05-28 05:16:00,
2013-05-28 01:32:00,48.0,41.8,29.98,NNE,22,0.0,-999.0,79,-99.99,,,0.00,Acu-Link.com,2013-05-28 05:32:00,
2013-05-28 01:47:00,47.8,41.3,29.98,NNE,22,0.0,-999.0,78,-99.99,,,0.00,Acu-Link.com,2013-05-28 05:47:00,
2013-05-28 02:02:00,47.8,41.0,29.98,NNE,22,0.0,-999.0,77,-99.99,,,0.00,Acu-Link.com,2013-05-28 06:02:00,
2013-05-28 02:17:00,48.0,40.5,29.98,NNE,22,0.0,-999.0,75,-99.99,,,0.00,Acu-Link.com,2013-05-28 06:17:00,
2013-05-28 02:32:00,47.8,39.3,29.97,NNE,22,0.0,-999.0,72,-99.99,,,0.00,Acu-Link.com,2013-05-28 06:32:00,
2013-05-28 02:48:00,48.2,39.6,29.97,NNE,22,0.0,-999.0,72,-99.99,,,0.00,Acu-Link.com,2013-05-28 06:48:00,
2013-05-28 03:03:00,48.4,39.8,29.97,NNE,22,0.0,-999.0,72,-99.99,,,0.00,Acu-Link.com,2013-05-28 07:03:00,
2013-05-28 03:18:00,48.4,39.4,29.97,NNE,22,0.0,-999.0,71,-99.99,,,0.00,Acu-Link.com,2013-05-28 07:18:00,
2013-05-28 03:33:00,48.4,39.4,29.96,NNE,22,0.0,-999.0,71,-99.99,,,0.00,Acu-Link.com,2013-05-28 07:33:00,
2013-05-28 03:49:00,48.7,40.1,29.96,NNE,22,0.0,-999.0,72,-99.99,,,0.00,Acu-Link.com,2013-05-28 07:49:00,
2013-05-28 04:04:00,48.6,39.9,29.95,NNE,22,0.0,-999.0,72,-99.99,,,0.00,Acu-Link.com,2013-05-28 08:04:00,
2013-05-28 04:19:00,48.6,39.9,29.95,NNE,22,0.0,-999.0,72,-99.99,,,0.00,Acu-Link.com,2013-05-28 08:19:00,
2013-05-28 04:34:00,48.9,39.9,29.95,ESE,112,1.6,-999.0,71,-99.99,,,0.00,Acu-Link.com,2013-05-28 08:34:00,
2013-05-28 04:49:00,52.3,38.9,29.94,South,180,2.2,-999.0,60,-99.99,,,0.00,Acu-Link.com,2013-05-28 08:49:00,
2013-05-28 05:04:00,55.9,39.5,29.94,ESE,112,3.8,-999.0,54,-99.99,,,0.00,Acu-Link.com,2013-05-28 09:04:00,
2013-05-28 05:19:00,55.9,40.0,29.94,South,180,4.3,-999.0,55,-99.99,,,0.00,Acu-Link.com,2013-05-28 09:19:00,
2013-05-28 05:35:00,55.9,40.5,29.93,South,180,2.7,-999.0,56,-99.99,,,0.00,Acu-Link.com,2013-05-28 09:35:00,
2013-05-28 05:50:00,55.9,40.5,29.93,SSE,157,3.8,-999.0,56,-99.99,,,0.00,Acu-Link.com,2013-05-28 09:50:00,
2013-05-28 06:05:00,56.5,40.5,29.92,SSW,202,3.8,-999.0,55,-99.99,,,0.00,Acu-Link.com,2013-05-28 10:05:00,
2013-05-28 06:20:00,56.7,40.7,29.92,South,180,2.7,-999.0,55,-99.99,,,0.00,Acu-Link.com,2013-05-28 10:20:00,
2013-05-28 06:35:00,57.0,40.5,29.92,South,180,4.7,-999.0,54,-99.99,,,0.00,Acu-Link.com,2013-05-28 10:35:00,
2013-05-28 06:51:00,57.0,40.5,29.92,SSE,157,6.3,-999.0,54,-99.99,,,0.00,Acu-Link.com,2013-05-28 10:51:00,
2013-05-28 07:06:00,57.0,41.0,29.92,South,180,10.3,-999.0,55,-99.99,,,0.00,Acu-Link.com,2013-05-28 11:06:00,
2013-05-28 07:21:00,57.0,41.0,29.92,ESE,112,5.1,-999.0,55,-99.99,,,0.00,Acu-Link.com,2013-05-28 11:21:00,
2013-05-28 07:36:00,57.0,41.9,29.92,SSE,157,3.8,-999.0,57,-99.99,,,0.00,Acu-Link.com,2013-05-28 11:36:00,
2013-05-28 07:52:00,57.0,41.9,29.92,SSE,157,5.1,-999.0,57,-99.99,,,0.00,Acu-Link.com,2013-05-28 11:52:00,
2013-05-28 08:07:00,57.4,42.3,29.92,SSW,202,4.7,-999.0,57,-99.99,,,0.00,Acu-Link.com,2013-05-28 12:07:00,
2013-05-28 08:22:00,57.4,43.2,29.92,South,180,3.8,-999.0,59,-99.99,,,0.00,Acu-Link.com,2013-05-28 12:22:00,
2013-05-28 08:37:00,57.6,43.3,29.92,SSE,157,7.8,-999.0,59,-99.99,,,0.00,Acu-Link.com,2013-05-28 12:37:00,
2013-05-28 08:52:00,57.9,43.7,29.92,SSE,157,4.7,-999.0,59,-99.99,,,0.00,Acu-Link.com,2013-05-28 12:52:00,
2013-05-28 09:08:00,57.4,44.9,29.92,SE,135,1.6,-999.0,63,-99.99,,,0.00,Acu-Link.com,2013-05-28 13:08:00,
2013-05-28 09:23:00,57.0,46.2,29.93,SE,135,0.0,-999.0,67,-99.99,,,0.00,Acu-Link.com,2013-05-28 13:23:00,
2013-05-28 09:38:00,56.3,47.4,29.93,ESE,112,0.0,-999.0,72,-99.99,,,0.00,Acu-Link.com,2013-05-28 13:38:00,
2013-05-28 09:53:00,56.1,49.4,29.93,SE,135,1.6,-999.0,78,-99.99,,,0.01,Acu-Link.com,2013-05-28 13:53:00,
2013-05-28 10:08:00,55.6,50.2,29.93,South,180,0.0,-999.0,82,-99.99,,,0.01,Acu-Link.com,2013-05-28 14:08:00,
2013-05-28 10:24:00,54.9,50.8,29.93,SSE,157,2.2,-999.0,86,-99.99,,,0.06,Acu-Link.com,2013-05-28 14:24:00,
2013-05-28 10:39:00,54.1,50.0,29.93,South,180,2.7,-999.0,86,-99.99,,,0.07,Acu-Link.com,2013-05-28 14:39:00,
2013-05-28 10:54:00,54.0,50.8,29.93,South,180,2.2,-999.0,89,-99.99,,,0.09,Acu-Link.com,2013-05-28 14:54:00,
2013-05-28 11:09:00,53.8,50.9,29.93,SSE,157,1.6,-999.0,90,-99.99,,,0.12,Acu-Link.com,2013-05-28 15:09:00,
2013-05-28 11:25:00,54.0,51.4,29.93,SSE,157,3.8,-999.0,91,-99.99,,,0.20,Acu-Link.com,2013-05-28 15:25:00,
2013-05-28 11:40:00,54.7,52.4,29.93,South,180,3.1,-999.0,92,-99.99,,,0.22,Acu-Link.com,2013-05-28 15:40:00,
2013-05-28 11:55:00,56.1,53.2,29.92,SSW,202,4.3,-999.0,90,-99.99,,,0.22,Acu-Link.com,2013-05-28 15:55:00,
2013-05-28 12:10:00,57.0,54.1,29.91,South,180,6.3,-999.0,90,-99.99,,,0.23,Acu-Link.com,2013-05-28 16:10:00,
2013-05-28 12:25:00,58.1,54.6,29.91,ESE,112,5.1,-999.0,88,-99.99,,,0.23,Acu-Link.com,2013-05-28 16:25:00,
2013-05-28 12:41:00,58.8,55.0,29.91,SSE,157,3.1,-999.0,87,-99.99,,,0.23,Acu-Link.com,2013-05-28 16:41:00,
2013-05-28 12:56:00,58.8,55.0,29.91,South,180,3.8,-999.0,87,-99.99,,,0.23,Acu-Link.com,2013-05-28 16:56:00,
2013-05-28 13:11:00,59.4,55.5,29.90,ESE,112,3.8,-999.0,87,-99.99,,,0.23,Acu-Link.com,2013-05-28 17:11:00,
2013-05-28 13:27:00,59.5,55.3,29.90,SSE,157,4.3,-999.0,86,-99.99,,,0.23,Acu-Link.com,2013-05-28 17:27:00,
2013-05-28 13:43:00,59.0,55.4,29.89,SSW,202,5.8,-999.0,88,-99.99,,,0.23,Acu-Link.com,2013-05-28 17:43:00,
2013-05-28 13:58:00,58.8,55.6,29.89,South,180,2.2,-999.0,89,-99.99,,,0.23,Acu-Link.com,2013-05-28 17:58:00,
2013-05-28 14:13:00,59.2,55.6,29.88,South,180,4.7,-999.0,88,-99.99,,,0.23,Acu-Link.com,2013-05-28 18:13:00,
2013-05-28 14:28:00,60.4,56.2,29.88,SSE,157,4.3,-999.0,86,-99.99,,,0.23,Acu-Link.com,2013-05-28 18:28:00,
2013-05-28 14:43:00,61.5,56.6,29.88,SSE,157,7.8,-999.0,84,-99.99,,,0.23,Acu-Link.com,2013-05-28 18:43:00,
2013-05-28 14:59:00,62.2,56.7,29.88,SSE,157,4.7,-999.0,82,-99.99,,,0.23,Acu-Link.com,2013-05-28 18:59:00,
2013-05-28 15:14:00,62.2,57.0,29.88,South,180,4.3,-999.0,83,-99.99,,,0.23,Acu-Link.com,2013-05-28 19:14:00,
2013-05-28 15:29:00,62.4,57.2,29.88,SSE,157,4.3,-999.0,83,-99.99,,,0.23,Acu-Link.com,2013-05-28 19:29:00,
2013-05-28 15:44:00,62.8,57.5,29.88,South,180,4.7,-999.0,83,-99.99,,,0.23,Acu-Link.com,2013-05-28 19:44:00,
2013-05-28 15:59:00,62.8,57.9,29.88,SSE,157,2.2,-999.0,84,-99.99,,,0.23,Acu-Link.com,2013-05-28 19:59:00,
2013-05-28 16:15:00,62.4,57.5,29.88,SE,135,2.7,-999.0,84,-99.99,,,0.23,Acu-Link.com,2013-05-28 20:15:00,
2013-05-28 16:30:00,62.6,57.4,29.88,SE,135,2.7,-999.0,83,-99.99,,,0.23,Acu-Link.com,2013-05-28 20:30:00,
2013-05-28 16:45:00,62.4,57.5,29.87,SSE,157,1.1,-999.0,84,-99.99,,,0.23,Acu-Link.com,2013-05-28 20:45:00,
2013-05-28 17:00:00,63.0,57.4,29.86,SSE,157,5.1,-999.0,82,-99.99,,,0.23,Acu-Link.com,2013-05-28 21:00:00,
2013-05-28 17:16:00,63.0,57.0,29.85,SSW,202,1.6,-999.0,81,-99.99,,,0.23,Acu-Link.com,2013-05-28 21:16:00,
2013-05-28 17:31:00,63.1,57.2,29.85,ESE,112,2.7,-999.0,81,-99.99,,,0.23,Acu-Link.com,2013-05-28 21:31:00,
2013-05-28 17:46:00,63.1,57.6,29.85,SSE,157,6.3,-999.0,82,-99.99,,,0.23,Acu-Link.com,2013-05-28 21:46:00,
2013-05-28 18:01:00,62.6,58.0,29.84,SE,135,2.7,-999.0,85,-99.99,,,0.23,Acu-Link.com,2013-05-28 22:01:00,
2013-05-28 18:16:00,62.4,58.2,29.84,SSW,202,2.7,-999.0,86,-99.99,,,0.23,Acu-Link.com,2013-05-28 22:16:00,
2013-05-28 18:31:00,62.4,58.5,29.83,South,180,1.1,-999.0,87,-99.99,,,0.23,Acu-Link.com,2013-05-28 22:31:00,
2013-05-28 18:47:00,62.1,58.1,29.83,ESE,112,4.3,-999.0,87,-99.99,,,0.23,Acu-Link.com,2013-05-28 22:47:00,
2013-05-28 19:02:00,62.2,57.7,29.82,SSE,157,5.1,-999.0,85,-99.99,,,0.23,Acu-Link.com,2013-05-28 23:02:00,
2013-05-28 19:17:00,62.1,57.5,29.82,South,180,2.2,-999.0,85,-99.99,,,0.23,Acu-Link.com,2013-05-28 23:17:00,
2013-05-28 19:32:00,61.7,57.5,29.82,SSW,202,3.8,-999.0,86,-99.99,,,0.23,Acu-Link.com,2013-05-28 23:32:00,
2013-05-28 19:47:00,61.3,57.1,29.81,South,180,5.1,-999.0,86,-99.99,,,0.23,Acu-Link.com,2013-05-28 23:47:00,
2013-05-28 20:03:00,61.0,56.8,29.81,South,180,3.8,-999.0,86,-99.99,,,0.23,Acu-Link.com,2013-05-29 00:03:00,
2013-05-28 20:18:00,60.6,56.7,29.81,NE,45,1.6,-999.0,87,-99.99,,,0.23,Acu-Link.com,2013-05-29 00:18:00,
2013-05-28 20:33:00,60.4,56.9,29.82,South,180,4.7,-999.0,88,-99.99,,,0.23,Acu-Link.com,2013-05-29 00:33:00,
2013-05-28 20:48:00,59.9,57.6,29.84,West,270,2.2,-999.0,92,-99.99,,,0.28,Acu-Link.com,2013-05-29 00:48:00,
2013-05-28 21:04:00,59.2,57.7,29.82,South,180,5.8,-999.0,95,-99.99,,,0.38,Acu-Link.com,2013-05-29 01:04:00,
2013-05-28 21:19:00,59.0,57.9,29.81,SSE,157,3.8,-999.0,96,-99.99,,,0.47,Acu-Link.com,2013-05-29 01:19:00,
2013-05-28 21:34:00,58.8,57.7,29.80,SE,135,2.7,-999.0,96,-99.99,,,0.53,Acu-Link.com,2013-05-29 01:34:00,
2013-05-28 21:49:00,58.8,57.7,29.79,NNW,337,4.3,-999.0,96,-99.99,,,0.58,Acu-Link.com,2013-05-29 01:49:00,
2013-05-28 22:04:00,58.8,57.7,29.78,SE,135,4.7,-999.0,96,-99.99,,,0.58,Acu-Link.com,2013-05-29 02:04:00,
2013-05-28 22:20:00,59.4,58.2,29.78,South,180,4.3,-999.0,96,-99.99,,,0.59,Acu-Link.com,2013-05-29 02:20:00,
2013-05-28 22:35:00,59.7,58.6,29.78,ESE,112,5.8,-999.0,96,-99.99,,,0.59,Acu-Link.com,2013-05-29 02:35:00,
2013-05-28 22:50:00,59.7,58.6,29.78,SSE,157,3.8,-999.0,96,-99.99,,,0.59,Acu-Link.com,2013-05-29 02:50:00,
2013-05-28 23:05:00,59.7,58.6,29.77,SE,135,4.7,-999.0,96,-99.99,,,0.59,Acu-Link.com,2013-05-29 03:05:00,
2013-05-28 23:20:00,59.7,58.6,29.77,South,180,2.7,-999.0,96,-99.99,,,0.59,Acu-Link.com,2013-05-29 03:20:00,
2013-05-28 23:36:00,59.7,58.3,29.78,SSE,157,2.7,-999.0,95,-99.99,,,0.59,Acu-Link.com,2013-05-29 03:36:00,
2013-05-28 23:51:00,59.5,58.1,29.77,SSE,157,5.1,-999.0,95,-99.99,,,0.59,Acu-Link.com,2013-05-29 03:51:00,